Time;durP1;ratioP1;P1;durP2;ratioP2;P2;SDS_P1;SDS_P2;PMS_P1;PMS_P2;Temp;Humidity;BMP_temperature;BMP_pressure;BME280_temperature;BME280_humidity;BME280_pressure;Samples;Min_cycle;Max_cycle;Signal;HPM_P1;HPM_P2
2022/08/21 06:38:45;;;;;;;;;5.75;5.00;;;;;19.32;60.16;101554.09;2421282;23;45864;-83
2022/08/21 06:39:56;;;;;;;;;8.75;6.50;;;;;19.34;60.26;101546.88;2366081;28;45508;-82
2022/08/21 06:41:06;;;;;;;;;5.25;4.25;;;;;19.37;59.94;101550.31;2353415;29;47721;-83
2022/08/21 06:42:17;;;;;;;;;6.00;5.00;;;;;19.41;59.62;101552.69;2352005;29;45207;-83
2022/08/21 06:43:28;;;;;;;;;8.00;4.75;;;;;19.42;59.76;101553.56;2357006;29;48025;-83
2022/08/21 06:44:38;;;;;;;;;4.00;4.00;;;;;19.45;59.82;101550.72;2359929;29;45265;-81
2022/08/21 06:45:48;;;;;;;;;6.00;4.00;;;;;19.47;58.79;101547.97;2365214;29;45301;-82
2022/08/21 06:46:59;;;;;;;;;6.50;5.75;;;;;19.50;58.84;101550.47;2362496;29;44570;-81
2022/08/21 06:48:09;;;;;;;;;4.50;4.50;;;;;19.53;58.87;101550.28;2366825;28;45359;-83
2022/08/21 06:49:20;;;;;;;;;7.25;5.75;;;;;19.56;58.95;101542.97;2362888;29;45248;-83
2022/08/21 06:50:30;;;;;;;;;6.00;5.00;;;;;19.60;59.20;101540.13;2360666;29;45356;-82
2022/08/21 06:51:41;;;;;;;;;5.25;4.00;;;;;19.63;59.41;101529.28;2365862;29;45365;-83
2022/08/21 06:53:05;;;;;;;;;5.00;4.25;;;;;19.67;59.36;101531.66;2365074;28;46313;-84
2022/08/21 06:54:16;;;;;;;;;9.00;5.75;;;;;19.74;59.21;101529.50;2364693;29;45307;-85
2022/08/21 06:55:27;;;;;;;;;7.50;6.00;;;;;19.79;59.33;101530.06;2354564;29;46772;-85
2022/08/21 06:56:38;;;;;;;;;4.25;3.00;;;;;19.84;59.36;101531.59;2341264;29;45394;-84
2022/08/21 06:57:48;;;;;;;;;5.50;5.00;;;;;19.89;59.42;101524.19;2348379;29;46836;-84
2022/08/21 06:58:59;;;;;;;;;5.00;5.00;;;;;19.94;59.50;101530.09;2356492;29;44757;-84
2022/08/21 07:00:10;;;;;;;;;4.75;4.75;;;;;19.97;58.94;101526.41;2357352;29;46951;-84
2022/08/21 07:01:24;;;;;;;;;6.75;5.25;;;;;20.05;58.46;101533.94;2365420;29;45425;-85
2022/08/21 07:02:35;;;;;;;;;3.50;3.25;;;;;20.09;58.75;101530.13;2364084;29;45595;-85
2022/08/21 07:03:45;;;;;;;;;6.75;6.00;;;;;20.12;58.61;101529.97;2351705;29;44802;-83
2022/08/21 07:04:55;;;;;;;;;6.50;4.25;;;;;20.17;58.59;101535.88;2352742;29;45586;-84
2022/08/21 07:06:08;;;;;;;;;4.00;4.00;;;;;20.22;58.65;101530.25;2363602;28;44816;-84
2022/08/21 07:07:18;;;;;;;;;7.50;5.50;;;;;20.27;58.03;101535.31;2365746;29;45392;-84
2022/08/21 07:08:28;;;;;;;;;6.50;5.25;;;;;20.32;58.32;101530.56;2358340;28;44898;-84
2022/08/21 07:09:39;;;;;;;;;6.00;4.00;;;;;20.35;57.94;101533.00;2360871;29;46310;-83
2022/08/21 07:10:53;;;;;;;;;4.75;4.25;;;;;20.39;58.00;101529.22;2362216;29;44786;-84
2022/08/21 07:12:03;;;;;;;;;7.75;4.00;;;;;20.43;57.72;101530.72;2361561;29;45551;-84
2022/08/21 07:13:14;;;;;;;;;2.75;2.75;;;;;20.50;57.95;101527.66;2363994;29;45349;-83
2022/08/21 07:14:25;;;;;;;;;4.75;4.75;;;;;20.57;57.65;101540.53;2359032;29;46105;-83
2022/08/21 07:15:35;;;;;;;;;5.00;4.25;;;;;20.63;57.81;101527.75;2357334;29;45497;-83
2022/08/21 07:16:46;;;;;;;;;4.50;4.50;;;;;20.72;57.54;101531.66;2365466;28;46283;-84
2022/08/21 07:18:00;;;;;;;;;6.00;4.00;;;;;20.78;57.63;101532.13;2361233;29;45264;-83
2022/08/21 07:19:10;;;;;;;;;4.50;4.50;;;;;20.85;57.42;101537.06;2357963;29;46072;-84
2022/08/21 07:20:21;;;;;;;;;5.00;4.50;;;;;20.92;56.87;101541.03;2360956;29;45311;-84
2022/08/21 07:21:31;;;;;;;;;3.00;3.00;;;;;20.97;56.73;101532.72;2365398;29;45455;-83
2022/08/21 07:22:42;;;;;;;;;4.25;4.25;;;;;21.02;57.06;101530.66;2366875;28;45220;-83
2022/08/21 07:23:53;;;;;;;;;7.25;5.75;;;;;21.08;56.69;101537.41;2365502;28;47147;-83
2022/08/21 07:25:05;;;;;;;;;6.75;5.25;;;;;21.08;56.89;101524.91;2360368;29;45441;-83
2022/08/21 07:26:20;;;;;;;;;3.00;3.00;;;;;21.12;56.34;101529.09;2363104;29;47566;-83
2022/08/21 07:27:31;;;;;;;;;5.50;4.50;;;;;21.17;56.66;101535.94;2362679;29;45241;-83
2022/08/21 07:28:41;;;;;;;;;5.00;5.00;;;;;21.19;56.17;101528.66;2366623;29;45338;-83
2022/08/21 07:29:51;;;;;;;;;8.50;5.50;;;;;21.23;56.67;101538.22;2366274;28;45462;-83
2022/08/21 07:31:03;;;;;;;;;7.00;6.50;;;;;21.24;56.02;101527.41;2362387;29;46203;-83
2022/08/21 07:32:14;;;;;;;;;8.00;5.25;;;;;21.26;55.50;101535.31;2357478;29;44789;-84
2022/08/21 07:33:27;;;;;;;;;4.50;4.00;;;;;21.26;55.04;101529.97;2357343;29;45462;-83
2022/08/21 07:34:37;;;;;;;;;5.75;4.75;;;;;21.26;55.01;101535.31;2360696;29;45512;-81
2022/08/21 07:35:48;;;;;;;;;6.25;5.25;;;;;21.28;54.90;101536.09;2365539;29;45335;-81
2022/08/21 07:36:58;;;;;;;;;6.00;6.00;;;;;21.29;55.44;101531.59;2365217;29;45359;-83
2022/08/21 07:38:08;;;;;;;;;6.25;5.25;;;;;21.30;55.40;101531.50;2361140;29;46172;-83
2022/08/21 07:39:19;;;;;;;;;5.50;5.00;;;;;21.30;55.16;101531.50;2350858;29;45507;-83
2022/08/21 07:40:29;;;;;;;;;7.00;6.75;;;;;21.30;55.23;101526.16;2358227;29;45297;-83
2022/08/21 07:41:40;;;;;;;;;4.25;4.00;;;;;21.31;54.98;101527.84;2365620;28;44696;-82
2022/08/21 07:42:51;;;;;;;;;7.25;7.25;;;;;21.33;55.04;101530.44;2367086;28;46290;-82
2022/08/21 07:44:02;;;;;;;;;7.25;7.25;;;;;21.34;55.36;101525.00;2360730;29;45409;-82
2022/08/21 07:45:14;;;;;;;;;6.50;4.75;;;;;21.35;55.04;101526.72;2363694;29;45346;-82
2022/08/21 07:46:26;;;;;;;;;7.00;4.25;;;;;21.38;55.26;101525.66;2358979;29;45363;-83
2022/08/21 07:47:38;;;;;;;;;6.00;6.00;;;;;21.42;54.99;101528.97;2358196;29;45455;-82
2022/08/21 07:48:48;;;;;;;;;3.75;3.75;;;;;21.46;54.86;101530.47;2364045;29;45270;-83
2022/08/21 07:49:58;;;;;;;;;5.75;5.00;;;;;21.50;54.15;101526.66;2363704;28;45321;-83
2022/08/21 07:51:12;;;;;;;;;4.75;4.75;;;;;21.53;54.58;101530.94;2358591;29;45222;-82
2022/08/21 07:52:22;;;;;;;;;6.50;5.00;;;;;21.57;54.53;101527.94;2365222;29;46393;-83
2022/08/21 07:53:35;;;;;;;;;6.00;6.00;;;;;21.61;54.48;101525.06;2360036;29;45245;-83
2022/08/21 07:54:45;;;;;;;;;8.00;5.25;;;;;21.65;54.57;101515.88;2361690;29;45443;-83
2022/08/21 07:55:59;;;;;;;;;5.25;5.25;;;;;21.69;54.29;101526.25;2365342;29;45417;-83
2022/08/21 07:57:10;;;;;;;;;8.50;4.50;;;;;21.73;54.43;101521.53;2361638;29;45302;-83
2022/08/21 07:58:20;;;;;;;;;7.25;5.00;;;;;21.77;54.43;101522.19;2365521;29;44771;-83
2022/08/21 07:59:30;;;;;;;;;4.00;3.50;;;;;21.80;54.28;101519.31;2358131;29;45385;-83
2022/08/21 08:00:41;;;;;;;;;7.75;6.75;;;;;21.84;54.21;101523.47;2365263;28;45337;-83
2022/08/21 08:01:51;;;;;;;;;7.50;7.00;;;;;21.87;54.15;101519.78;2363040;28;45461;-83
2022/08/21 08:03:02;;;;;;;;;6.00;4.00;;;;;21.90;53.83;101522.25;2358049;29;45624;-83
2022/08/21 08:04:14;;;;;;;;;8.00;6.75;;;;;21.92;54.01;101520.31;2365157;28;45502;-83
2022/08/21 08:05:29;;;;;;;;;6.00;3.75;;;;;21.95;53.65;101520.09;2360320;29;45400;-82
2022/08/21 08:06:40;;;;;;;;;8.75;5.00;;;;;21.97;53.17;101512.81;2360719;29;46221;-82
2022/08/21 08:07:51;;;;;;;;;9.00;6.50;;;;;21.99;53.59;101510.88;2364880;29;45363;-82
2022/08/21 08:09:03;;;;;;;;;5.25;5.25;;;;;22.02;53.60;101516.03;2365872;29;45650;-82
2022/08/21 08:10:14;;;;;;;;;3.75;3.75;;;;;22.05;53.58;101514.94;2365881;29;45315;-82
2022/08/21 08:11:24;;;;;;;;;4.50;4.50;;;;;22.07;53.40;101506.81;2351392;29;47023;-82
2022/08/21 08:12:36;;;;;;;;;5.50;5.00;;;;;22.11;53.19;101510.97;2359258;29;45537;-82
2022/08/21 08:13:49;;;;;;;;;5.50;5.50;;;;;22.16;53.99;101506.16;2364815;29;46437;-82
2022/08/21 08:15:01;;;;;;;;;6.00;5.00;;;;;22.21;53.34;101513.88;2357973;29;45189;-82
2022/08/21 08:16:12;;;;;;;;;4.25;4.25;;;;;22.27;53.84;101516.13;2357093;29;45688;-82
2022/08/21 08:17:23;;;;;;;;;4.75;4.75;;;;;22.31;52.96;101514.06;2357177;29;45294;-82
2022/08/21 08:18:33;;;;;;;;;6.75;5.00;;;;;22.35;53.17;101507.53;2356995;29;45472;-82
2022/08/21 08:19:44;;;;;;;;;6.00;6.00;;;;;22.39;53.18;101510.84;2358846;29;45414;-82
2022/08/21 08:20:54;;;;;;;;;6.25;6.25;;;;;22.42;52.60;101507.97;2365887;29;46484;-82
2022/08/21 08:22:19;;;;;;;;;7.25;6.25;;;;;22.47;52.93;101512.00;2365078;29;45451;-83
2022/08/21 08:23:30;;;;;;;;;5.75;5.00;;;;;22.51;52.68;101507.28;2357140;29;45285;-82
2022/08/21 08:24:41;;;;;;;;;4.75;4.00;;;;;22.56;52.84;101506.97;2357134;29;45270;-82
2022/08/21 08:25:51;;;;;;;;;7.25;6.50;;;;;22.60;53.17;101503.06;2357852;29;45342;-82
2022/08/21 08:27:02;;;;;;;;;6.50;6.00;;;;;22.63;52.47;101508.22;2357182;29;44681;-83
2022/08/21 08:28:12;;;;;;;;;5.25;5.00;;;;;22.68;52.58;101507.88;2356915;29;45308;-80
2022/08/21 08:29:22;;;;;;;;;7.25;4.00;;;;;22.70;52.64;101504.16;2357130;29;45460;-79
2022/08/21 08:30:33;;;;;;;;;7.50;5.00;;;;;22.75;52.20;101502.97;2356931;29;46126;-78
2022/08/21 08:31:43;;;;;;;;;6.00;4.00;;;;;22.79;52.10;101507.16;2357128;29;45372;-78
2022/08/21 08:32:53;;;;;;;;;6.50;6.00;;;;;22.84;52.49;101509.47;2357029;29;46299;-79
2022/08/21 08:34:04;;;;;;;;;6.00;4.00;;;;;22.88;51.94;101503.78;2357101;29;45244;-78
2022/08/21 08:35:16;;;;;;;;;6.25;5.25;;;;;22.91;51.91;101506.25;2356895;29;45524;-78
2022/08/21 08:36:35;;;;;;;;;5.75;4.75;;;;;22.93;51.83;101498.94;2365561;28;45263;-78
2022/08/21 08:37:45;;;;;;;;;6.75;5.00;;;;;22.97;51.70;101504.91;2364322;29;46308;-78
2022/08/21 08:38:55;;;;;;;;;6.00;4.50;;;;;23.00;51.79;101504.69;2365748;29;45504;-78
2022/08/21 08:40:12;;;;;;;;;7.25;5.75;;;;;23.04;51.49;101500.81;2360624;29;45354;-78
2022/08/21 08:41:23;;;;;;;;;8.75;5.25;;;;;23.06;51.53;101499.84;2360679;29;45224;-78
2022/08/21 08:42:35;;;;;;;;;5.50;5.50;;;;;23.10;52.06;101504.84;2365787;29;45434;-76
2022/08/21 08:43:53;;;;;;;;;8.00;5.00;;;;;23.13;51.36;101499.28;2366139;29;45332;-77
2022/08/21 08:45:08;;;;;;;;;5.00;4.50;;;;;23.18;51.33;101500.75;2365825;29;46655;-77
2022/08/21 08:46:34;;;;;;;;;5.25;5.00;;;;;23.21;51.71;101500.53;2363315;29;45224;-75
2022/08/21 08:47:51;;;;;;;;;8.50;5.75;;;;;23.23;51.45;101501.25;2344694;29;47380;-74
2022/08/21 08:49:10;;;;;;;;;6.00;5.75;;;;;23.28;51.16;101501.78;2347462;29;44623;-74
2022/08/21 08:50:33;;;;;;;;;7.75;4.25;;;;;23.29;51.65;101500.78;2358244;29;45332;-74
2022/08/21 08:52:00;;;;;;;;;8.00;6.00;;;;;23.35;51.53;101502.16;2364963;29;45895;-74
2022/08/21 08:53:32;;;;;;;;;5.00;5.00;;;;;23.35;51.14;101500.34;2364157;29;45562;-74
2022/08/21 08:54:50;;;;;;;;;6.50;6.00;;;;;23.39;51.29;101492.88;2365694;29;45234;-74
2022/08/21 08:56:04;;;;;;;;;7.50;4.50;;;;;23.40;51.19;101499.13;2363259;29;45509;-74
2022/08/21 08:57:18;;;;;;;;;4.00;4.00;;;;;23.43;50.77;101496.22;2364243;29;44765;-74
2022/08/21 08:58:30;;;;;;;;;7.75;5.75;;;;;23.44;51.67;101498.75;2363908;29;45395;-74
2022/08/21 08:59:46;;;;;;;;;6.50;5.00;;;;;23.45;50.77;101489.75;2361947;28;44775;-74
2022/08/21 09:00:58;;;;;;;;;5.50;4.00;;;;;23.49;50.46;101493.06;2365721;29;46490;-74
2022/08/21 09:02:11;;;;;;;;;7.50;5.00;;;;;23.51;50.49;101492.97;2365663;29;45456;-74
2022/08/21 09:03:23;;;;;;;;;3.25;1.50;;;;;23.53;50.41;101488.34;2365525;29;45291;-74
2022/08/21 09:04:34;;;;;;;;;4.75;3.25;;;;;23.53;50.37;101482.97;2365290;29;45460;-74
2022/08/21 09:06:00;;;;;;;;;7.75;6.00;;;;;23.56;50.10;101488.09;2365093;29;45493;-74
2022/08/21 09:07:22;;;;;;;;;5.25;5.25;;;;;23.57;50.39;101487.97;2360377;29;45217;-77
2022/08/21 09:08:54;;;;;;;;;7.25;6.00;;;;;23.61;50.04;101488.59;2349606;29;45472;-74
2022/08/21 09:10:05;;;;;;;;;6.50;6.00;;;;;23.63;49.85;101488.50;2343136;29;44778;-77
2022/08/21 09:11:25;;;;;;;;;6.00;5.00;;;;;23.64;50.24;101488.34;2345833;29;47321;-77
2022/08/21 09:12:55;;;;;;;;;6.50;6.50;;;;;23.69;50.06;101488.00;2356238;29;45196;-77
2022/08/21 09:14:17;;;;;;;;;7.50;5.75;;;;;23.70;49.94;101478.97;2357361;29;45468;-77
2022/08/21 09:15:43;;;;;;;;;6.00;5.00;;;;;23.71;49.83;101478.00;2362035;29;45453;-78
2022/08/21 09:17:13;;;;;;;;;5.00;5.00;;;;;23.75;49.38;101478.63;2365289;29;46116;-75
2022/08/21 09:18:43;;;;;;;;;7.50;5.75;;;;;23.79;49.91;101478.25;2365307;29;45461;-75
2022/08/21 09:20:13;;;;;;;;;5.75;4.25;;;;;23.83;49.80;101468.97;2364412;29;46653;-74
2022/08/21 09:21:40;;;;;;;;;5.25;5.25;;;;;23.88;49.65;101470.47;2364622;29;45395;-75
2022/08/21 09:23:14;;;;;;;;;7.25;5.00;;;;;23.91;49.44;101478.25;2350700;29;48544;-75
2022/08/21 09:24:56;;;;;;;;;7.75;4.75;;;;;23.94;48.93;101469.97;2361335;29;45889;-75
2022/08/21 09:26:19;;;;;;;;;5.75;5.75;;;;;23.98;49.36;101470.59;2363838;29;45533;-75
2022/08/21 09:27:31;;;;;;;;;5.00;5.00;;;;;23.99;49.07;101467.78;2364854;29;44832;-76
2022/08/21 09:28:42;;;;;;;;;4.25;4.25;;;;;24.01;48.97;101463.13;2364904;29;45479;-76
2022/08/21 09:29:54;;;;;;;;;7.00;4.75;;;;;24.03;49.13;101465.69;2365272;29;45294;-76
2022/08/21 09:31:15;;;;;;;;;5.00;5.00;;;;;24.04;48.95;101462.91;2365091;29;45694;-76
2022/08/21 09:32:28;;;;;;;;;4.25;4.25;;;;;24.07;48.45;101452.91;2363446;29;45391;-76
2022/08/21 09:33:38;;;;;;;;;5.25;4.75;;;;;24.09;49.24;101450.94;2365133;29;45660;-76
2022/08/21 09:35:22;;;;;;;;;7.00;6.00;;;;;24.11;48.88;101448.97;2365098;29;44653;-76
2022/08/21 09:36:41;;;;;;;;;5.75;5.00;;;;;24.11;48.45;101455.22;2326834;29;45394;-76
2022/08/21 09:37:57;;;;;;;;;4.00;4.00;;;;;24.15;48.65;101455.84;2362351;29;45403;-76
2022/08/21 09:39:09;;;;;;;;;4.75;4.75;;;;;24.15;48.71;101450.47;2355712;29;45462;-76
2022/08/21 09:40:35;;;;;;;;;5.75;5.00;;;;;24.17;48.79;101460.06;2363133;29;45627;-76
2022/08/21 09:41:45;;;;;;;;;4.75;4.00;;;;;24.18;48.18;101450.19;2363250;29;46272;-76
2022/08/21 09:42:58;;;;;;;;;5.00;4.25;;;;;24.21;48.38;101451.78;2365459;28;45280;-76
2022/08/21 09:44:08;;;;;;;;;6.50;4.50;;;;;24.20;48.51;101455.47;2365097;29;45386;-76
2022/08/21 09:45:19;;;;;;;;;5.00;5.00;;;;;24.21;48.57;101449.94;2365182;29;45211;-76
2022/08/21 09:46:29;;;;;;;;;5.00;4.50;;;;;24.24;48.50;101454.22;2364844;29;45506;-76
2022/08/21 09:47:40;;;;;;;;;5.00;4.00;;;;;24.24;48.35;101460.47;2365525;29;44688;-76
2022/08/21 09:48:54;;;;;;;;;7.00;6.50;;;;;24.22;48.32;101453.50;2362338;29;46195;-76
2022/08/21 09:50:16;;;;;;;;;5.25;4.00;;;;;24.22;48.32;101454.34;2365580;29;45425;-76
2022/08/21 09:51:30;;;;;;;;;4.75;4.25;;;;;24.25;48.45;101467.56;2358623;29;48316;-76
2022/08/21 09:52:49;;;;;;;;;5.00;4.00;;;;;24.26;48.14;101463.03;2358844;29;45254;-76
2022/08/21 09:54:05;;;;;;;;;4.00;4.00;;;;;24.26;48.06;101463.91;2359671;29;47187;-76
2022/08/21 09:58:37;;;;;;;;;6.00;4.50;;;;;24.27;47.72;101462.91;2363965;29;45470;-76
2022/08/21 09:59:47;;;;;;;;;5.00;4.00;;;;;24.27;48.20;101462.91;2354139;29;47026;-76
2022/08/21 10:01:01;;;;;;;;;5.25;5.00;;;;;24.30;47.74;101460.97;2350055;29;44789;-76
2022/08/21 10:02:38;;;;;;;;;4.25;4.25;;;;;24.30;47.99;101463.66;2365248;29;46363;-76
2022/08/21 10:03:49;;;;;;;;;5.50;4.00;;;;;24.30;48.10;101458.28;2360745;29;45520;-76
2022/08/21 10:05:04;;;;;;;;;6.50;4.75;;;;;24.30;47.68;101451.06;2364392;29;46180;-76
2022/08/21 10:06:26;;;;;;;;;5.75;5.00;;;;;24.32;48.16;101450.97;2364207;29;44733;-76
2022/08/21 10:07:37;;;;;;;;;4.00;3.00;;;;;24.32;47.80;101443.75;2356384;29;45450;-76
2022/08/21 10:08:48;;;;;;;;;4.75;4.75;;;;;24.34;47.58;101444.47;2358644;29;44712;-76
2022/08/21 10:10:29;;;;;;;;;5.00;5.00;;;;;24.36;47.48;101442.53;2367038;29;45316;-76
2022/08/21 10:11:52;;;;;;;;;4.25;4.25;;;;;24.37;47.50;101438.00;2353212;29;45259;-76
2022/08/21 10:13:33;;;;;;;;;5.50;5.00;;;;;24.39;47.34;101436.03;2366609;29;45426;-76
2022/08/21 10:15:04;;;;;;;;;4.25;4.00;;;;;24.37;47.75;101438.84;2352382;29;45454;-76
2022/08/21 10:16:18;;;;;;;;;5.00;5.00;;;;;24.41;47.67;101441.28;2358167;29;45378;-76
2022/08/21 10:17:41;;;;;;;;;4.00;4.00;;;;;24.41;46.97;101431.41;2366942;28;45490;-76
2022/08/21 10:19:33;;;;;;;;;5.00;4.00;;;;;24.41;46.89;101431.41;2364560;29;46576;-76
2022/08/21 10:20:50;;;;;;;;;3.75;3.75;;;;;24.40;46.82;101427.00;2362017;29;45506;-76
2022/08/21 10:22:17;;;;;;;;;6.25;4.50;;;;;24.40;47.03;101432.38;2366851;29;45405;-76
2022/08/21 10:23:43;;;;;;;;;6.00;4.00;;;;;24.41;46.89;101428.72;2364904;29;44772;-76
2022/08/21 10:25:21;;;;;;;;;5.00;4.00;;;;;24.45;47.24;101422.09;2365919;29;45349;-76
2022/08/21 10:26:57;;;;;;;;;4.50;4.00;;;;;24.48;47.22;101427.22;2366234;29;45297;-76
2022/08/21 10:28:26;;;;;;;;;4.75;4.00;;;;;24.52;47.44;101413.56;2358756;29;46092;-77
2022/08/21 10:30:19;;;;;;;;;3.00;3.00;;;;;24.59;47.24;101414.75;2367050;29;44715;-77
2022/08/21 10:31:50;;;;;;;;;4.50;3.00;;;;;24.63;47.60;101409.94;2327105;29;45611;-77
2022/08/21 10:33:43;;;;;;;;;5.25;4.25;;;;;24.67;47.45;101416.81;2325178;29;44886;-77
2022/08/21 10:35:14;;;;;;;;;5.50;3.50;;;;;24.72;46.84;101407.34;2329490;29;45610;-76
2022/08/21 10:36:35;;;;;;;;;4.00;3.25;;;;;24.75;47.11;101408.06;2329172;29;45317;-76
2022/08/21 10:38:10;;;;;;;;;5.00;5.00;;;;;24.80;47.05;101405.84;2357456;29;46066;-76
2022/08/21 10:39:32;;;;;;;;;4.00;4.00;;;;;24.80;46.71;101403.16;2365018;29;45477;-76
2022/08/21 10:41:13;;;;;;;;;3.00;3.00;;;;;24.84;46.61;101401.94;2357887;29;45308;-76
2022/08/21 10:42:27;;;;;;;;;4.75;4.75;;;;;24.88;46.96;101406.09;2357699;29;45327;-76
2022/08/21 10:43:49;;;;;;;;;4.75;4.25;;;;;24.90;47.25;101398.72;2361617;29;45529;-76
2022/08/21 10:45:24;;;;;;;;;4.25;4.25;;;;;24.93;46.87;101401.16;2366372;29;44729;-76
2022/08/21 10:46:55;;;;;;;;;7.50;6.50;;;;;24.97;46.40;101392.81;2366431;29;45350;-77
2022/08/21 10:48:10;;;;;;;;;4.00;3.00;;;;;24.97;46.09;101384.75;2366308;29;45449;-76
2022/08/21 10:49:40;;;;;;;;;7.00;4.25;;;;;24.98;46.00;101402.59;2366641;29;46601;-76
2022/08/21 10:51:05;;;;;;;;;6.75;3.75;;;;;25.01;46.17;101399.69;2345881;29;45438;-76
2022/08/21 10:52:33;;;;;;;;;3.75;3.75;;;;;25.03;46.41;101393.22;2366417;29;45422;-76
2022/08/21 10:54:01;;;;;;;;;3.00;3.00;;;;;25.08;45.95;101390.13;2366165;29;45408;-76
2022/08/21 10:55:19;;;;;;;;;6.00;4.00;;;;;25.10;45.37;101382.78;2366022;29;45449;-76
2022/08/21 10:56:33;;;;;;;;;3.75;3.25;;;;;25.12;46.05;101378.09;2366027;29;45405;-76
2022/08/21 10:57:50;;;;;;;;;5.75;2.50;;;;;25.18;45.69;101384.81;2358627;29;45556;-75
2022/08/21 10:59:23;;;;;;;;;4.00;3.25;;;;;25.21;45.74;101381.00;2366930;29;45224;-76
2022/08/21 11:00:41;;;;;;;;;7.50;3.75;;;;;25.23;45.58;101377.19;2365604;29;46676;-75
2022/08/21 11:02:04;;;;;;;;;4.00;2.50;;;;;25.26;45.05;101376.91;2364365;29;45464;-76
2022/08/21 11:03:24;;;;;;;;;4.00;3.00;;;;;25.31;45.24;101370.31;2363087;29;46403;-76
2022/08/21 11:04:50;;;;;;;;;3.50;3.25;;;;;25.31;45.41;101373.81;2366331;29;45150;-76
2022/08/21 11:06:23;;;;;;;;;3.00;2.75;;;;;25.34;44.80;101376.25;2363399;29;46346;-76
2022/08/21 11:07:45;;;;;;;;;2.50;2.50;;;;;25.37;45.44;101381.38;2357640;29;45452;-76
2022/08/21 11:09:03;;;;;;;;;5.75;2.75;;;;;25.41;44.86;101387.31;2366269;29;45506;-76
2022/08/21 11:10:26;;;;;;;;;3.50;3.00;;;;;25.44;44.55;101383.53;2366575;29;45167;-76
2022/08/21 11:11:44;;;;;;;;;4.00;2.25;;;;;25.47;44.71;101380.56;2357535;29;45527;-76
2022/08/21 11:13:32;;;;;;;;;4.75;3.75;;;;;25.52;45.02;101381.03;2358172;29;45470;-76
2022/08/21 11:15:19;;;;;;;;;2.00;2.00;;;;;25.55;44.78;101378.06;2358835;29;46338;-76
2022/08/21 11:16:43;;;;;;;;;4.00;4.00;;;;;25.61;44.97;101379.34;2357596;29;45415;-76
2022/08/21 11:18:00;;;;;;;;;4.25;3.00;;;;;25.62;44.73;101365.78;2357452;29;45388;-76
2022/08/21 11:19:18;;;;;;;;;4.75;4.25;;;;;25.67;44.39;101377.97;2362904;29;45159;-76
2022/08/21 11:20:46;;;;;;;;;3.25;2.75;;;;;25.70;44.40;101369.63;2365587;29;45422;-76
2022/08/21 11:22:07;;;;;;;;;2.25;2.25;;;;;25.74;44.60;101381.84;2366634;29;45362;-76
2022/08/21 11:23:44;;;;;;;;;1.25;1.25;;;;;25.77;44.50;101378.91;2365634;29;45671;-76
2022/08/21 11:25:10;;;;;;;;;3.00;3.00;;;;;25.78;44.94;101383.28;2360806;28;44754;-75
2022/08/21 11:26:32;;;;;;;;;3.25;3.25;;;;;25.79;43.79;101384.13;2362568;29;46480;-75
2022/08/21 11:27:48;;;;;;;;;4.25;3.50;;;;;25.81;44.04;101392.91;2364095;29;45150;-75
2022/08/21 11:29:08;;;;;;;;;4.25;3.00;;;;;25.84;43.90;101385.44;2365741;29;45492;-76
2022/08/21 11:30:20;;;;;;;;;4.00;3.25;;;;;25.87;44.48;101391.53;2366467;29;45206;-76
2022/08/21 11:31:59;;;;;;;;;3.50;3.50;;;;;25.86;44.33;101385.28;2363440;29;46421;-76
2022/08/21 11:33:15;;;;;;;;;4.75;3.25;;;;;25.89;43.48;101386.88;2365805;29;45247;-76
2022/08/21 11:35:00;;;;;;;;;2.25;2.25;;;;;25.90;44.24;101393.97;2366445;28;45483;-75
2022/08/21 11:36:24;;;;;;;;;1.50;1.50;;;;;25.91;44.07;101395.66;2338369;29;45341;-75
2022/08/21 11:38:00;;;;;;;;;6.50;4.50;;;;;25.91;43.95;101396.50;2336157;29;45452;-76
2022/08/21 11:39:16;;;;;;;;;4.00;2.50;;;;;25.94;44.01;101396.25;2360687;29;45241;-76
2022/08/21 11:40:54;;;;;;;;;2.00;2.00;;;;;25.97;43.27;101395.13;2357133;29;45346;-76
2022/08/21 11:42:07;;;;;;;;;1.00;1.00;;;;;25.98;43.94;101396.81;2363989;29;45159;-75
2022/08/21 11:43:34;;;;;;;;;5.75;2.50;;;;;25.99;43.27;101400.34;2364366;29;45467;-75
2022/08/21 11:44:53;;;;;;;;;3.25;3.25;;;;;26.00;43.78;101402.91;2366209;29;45367;-75
2022/08/21 11:46:30;;;;;;;;;1.75;1.75;;;;;26.03;43.87;101401.78;2357262;29;46311;-76
2022/08/21 11:48:12;;;;;;;;;2.00;2.00;;;;;26.06;43.49;101396.13;2361792;29;45343;-75
2022/08/21 11:49:28;;;;;;;;;2.75;2.75;;;;;26.09;43.41;101389.63;2357398;29;45409;-75
2022/08/21 11:50:40;;;;;;;;;2.25;2.25;;;;;26.11;43.69;101387.63;2354390;29;45252;-75
2022/08/21 11:52:15;;;;;;;;;2.00;2.00;;;;;26.14;43.83;101388.22;2358436;29;46377;-75
2022/08/21 11:53:25;;;;;;;;;5.00;2.25;;;;;26.18;43.96;101389.63;2366179;29;45267;-75
2022/08/21 11:54:43;;;;;;;;;2.00;2.00;;;;;26.21;43.53;101388.50;2365948;29;45365;-75
2022/08/21 11:56:02;;;;;;;;;3.50;3.00;;;;;26.22;43.30;101390.22;2365960;29;45335;-76
2022/08/21 11:57:23;;;;;;;;;3.75;3.00;;;;;26.27;43.22;101396.03;2351726;29;47184;-75
2022/08/21 11:58:42;;;;;;;;;3.00;3.00;;;;;26.30;43.90;101392.19;2360051;29;45248;-75
2022/08/21 12:00:03;;;;;;;;;2.00;2.00;;;;;26.34;43.87;101384.69;2365424;29;46356;-76
2022/08/21 12:01:19;;;;;;;;;3.00;3.00;;;;;26.38;44.02;101391.50;2363111;29;45268;-75
2022/08/21 12:02:35;;;;;;;;;3.00;3.00;;;;;26.41;43.63;101385.84;2365307;29;46438;-75
2022/08/21 12:04:01;;;;;;;;;2.25;2.25;;;;;26.48;43.80;101380.78;2366210;29;44755;-76
2022/08/21 12:05:26;;;;;;;;;2.00;2.00;;;;;26.51;44.15;101372.41;2365199;29;47286;-76
2022/08/21 12:06:40;;;;;;;;;4.50;4.00;;;;;26.56;43.19;101378.22;2365685;29;45341;-75
2022/08/21 12:08:20;;;;;;;;;2.25;2.25;;;;;26.59;43.73;101380.66;2365285;29;46612;-75
2022/08/21 12:09:36;;;;;;;;;5.00;3.00;;;;;26.64;43.49;101372.13;2355862;29;45422;-75
2022/08/21 12:11:00;;;;;;;;;3.75;3.00;;;;;26.67;43.44;101377.22;2365648;29;45421;-76
2022/08/21 12:12:23;;;;;;;;;3.00;3.00;;;;;26.71;43.79;101372.41;2365905;29;45225;-75
2022/08/21 12:13:39;;;;;;;;;3.00;3.00;;;;;26.74;43.40;101374.84;2358500;29;46609;-76
2022/08/21 12:15:02;;;;;;;;;4.00;2.50;;;;;26.76;43.32;101369.28;2363880;29;44534;-75
2022/08/21 12:16:27;;;;;;;;;2.75;2.75;;;;;26.77;43.27;101376.38;2359133;29;45897;-76
2022/08/21 12:17:40;;;;;;;;;3.00;3.00;;;;;26.80;43.81;101365.28;2347368;29;44638;-76
2022/08/21 12:19:09;;;;;;;;;2.50;2.50;;;;;26.82;43.38;101369.56;2356115;29;45428;-76
2022/08/21 12:20:19;;;;;;;;;3.25;3.25;;;;;26.85;43.55;101368.41;2366237;29;45197;-76
2022/08/21 12:21:30;;;;;;;;;2.75;2.50;;;;;26.85;43.61;101355.78;2365456;29;45451;-76
2022/08/21 12:22:41;;;;;;;;;2.00;2.00;;;;;26.87;43.52;101355.63;2365122;29;45240;-76
2022/08/21 12:24:04;;;;;;;;;5.00;3.25;;;;;26.91;42.58;101354.38;2365930;29;46452;-75
2022/08/21 12:25:18;;;;;;;;;3.00;3.00;;;;;26.92;43.01;101358.75;2364733;29;45401;-75
2022/08/21 12:26:31;;;;;;;;;2.00;2.00;;;;;26.96;42.71;101362.88;2362209;29;45554;-76
2022/08/21 12:27:45;;;;;;;;;6.00;3.00;;;;;26.96;42.74;101349.41;2366187;28;44642;-76
2022/08/21 12:29:13;;;;;;;;;2.00;2.00;;;;;26.97;42.98;101351.09;2365561;29;45401;-75
2022/08/21 12:30:36;;;;;;;;;3.00;3.00;;;;;27.00;42.68;101343.69;2364767;29;45809;-75
2022/08/21 12:31:53;;;;;;;;;2.25;2.00;;;;;27.01;42.72;101351.66;2356846;29;45422;-76
2022/08/21 12:33:18;;;;;;;;;4.50;2.50;;;;;27.03;42.47;101343.41;2357055;29;44671;-75
2022/08/21 12:34:36;;;;;;;;;4.00;4.00;;;;;27.04;43.19;101340.56;2361697;29;45326;-75
2022/08/21 12:35:49;;;;;;;;;3.00;3.00;;;;;27.06;43.07;101345.81;2365444;28;44800;-75
2022/08/21 12:37:04;;;;;;;;;6.00;3.00;;;;;27.09;42.79;101337.41;2365653;29;45590;-75
2022/08/21 12:38:20;;;;;;;;;2.00;2.00;;;;;27.10;42.78;101340.97;2365129;29;44815;-75
2022/08/21 12:39:33;;;;;;;;;2.00;2.00;;;;;27.10;43.25;101341.84;2365770;29;46613;-75
2022/08/21 12:40:47;;;;;;;;;2.00;2.00;;;;;27.12;43.43;101334.47;2361672;29;45260;-75
2022/08/21 12:42:04;;;;;;;;;4.00;3.00;;;;;27.14;43.09;101335.16;2360584;29;45487;-78
2022/08/21 12:43:23;;;;;;;;;2.50;1.25;;;;;27.15;43.71;101339.59;2365779;29;45322;-78
2022/08/21 12:44:45;;;;;;;;;2.25;2.25;;;;;27.16;42.92;101338.56;2363706;29;46443;-77